Time;durP1;ratioP1;P1;durP2;ratioP2;P2;SDS_P1;SDS_P2;PMS_P1;PMS_P2;Temp;Humidity;BMP_temperature;BMP_pressure;BME280_temperature;BME280_humidity;BME280_pressure;Samples;Min_cycle;Max_cycle;Signal;HPM_P1;HPM_P2
2021/10/30 00:01:24;;;;;;;1.98;1.27;;;21.80;52.30;;;;;;5037540;28;20137;-75
2021/10/30 00:03:50;;;;;;;2.72;1.30;;;21.80;52.40;;;;;;5033740;28;20025;-72
2021/10/30 00:06:17;;;;;;;2.15;1.33;;;21.80;52.30;;;;;;5038703;28;20060;-74
2021/10/30 00:08:43;;;;;;;1.70;1.20;;;21.70;52.30;;;;;;5041840;28;20087;-74
2021/10/30 00:11:08;;;;;;;2.08;1.40;;;21.80;52.40;;;;;;5029562;28;20453;-74
2021/10/30 00:13:34;;;;;;;1.63;1.20;;;21.70;52.30;;;;;;5026213;28;20026;-75
2021/10/30 00:16:00;;;;;;;2.03;1.27;;;21.70;52.30;;;;;;5035686;28;20069;-72
2021/10/30 00:18:26;;;;;;;2.20;1.20;;;21.70;52.30;;;;;;5030689;28;20037;-73
2021/10/30 00:20:52;;;;;;;2.40;1.20;;;21.70;52.30;;;;;;5026508;28;20017;-74
2021/10/30 00:23:17;;;;;;;2.22;1.05;;;21.70;52.40;;;;;;5032141;28;20032;-76
2021/10/30 00:25:43;;;;;;;2.00;1.15;;;21.70;52.40;;;;;;5027377;28;20042;-74
2021/10/30 00:28:09;;;;;;;1.92;1.20;;;21.70;52.40;;;;;;5033432;28;20029;-73
2021/10/30 00:30:35;;;;;;;2.05;1.23;;;21.70;52.40;;;;;;5029974;28;20053;-76
2021/10/30 00:33:00;;;;;;;1.70;1.00;;;21.70;52.40;;;;;;5031536;28;20051;-74
2021/10/30 00:35:26;;;;;;;1.80;1.17;;;21.60;52.40;;;;;;5050925;28;20060;-76
2021/10/30 00:37:52;;;;;;;1.88;1.13;;;21.60;52.40;;;;;;5027106;28;20476;-74
2021/10/30 00:40:17;;;;;;;1.77;1.10;;;21.60;52.40;;;;;;5031402;28;20033;-74
2021/10/30 00:42:43;;;;;;;1.77;1.17;;;21.60;52.40;;;;;;5032283;28;20429;-72
2021/10/30 00:45:09;;;;;;;1.67;1.02;;;21.60;52.40;;;;;;5026680;28;20029;-73
2021/10/30 00:47:34;;;;;;;2.05;1.20;;;21.60;52.50;;;;;;5032055;28;20031;-72
2021/10/30 00:50:01;;;;;;;1.77;1.20;;;21.60;52.50;;;;;;5032135;28;20044;-73
2021/10/30 00:52:28;;;;;;;2.03;1.25;;;21.60;52.50;;;;;;5042069;28;20083;-73
2021/10/30 00:54:57;;;;;;;1.83;1.10;;;21.60;52.70;;;;;;5029024;28;20127;-75
2021/10/30 00:57:25;;;;;;;1.65;1.10;;;21.60;52.50;;;;;;5033222;28;20037;-74
2021/10/30 00:59:52;;;;;;;1.45;1.10;;;21.50;52.50;;;;;;5053805;28;20046;-75
2021/10/30 01:02:18;;;;;;;1.92;1.20;;;21.50;52.50;;;;;;5037730;28;20037;-72
2021/10/30 01:04:44;;;;;;;2.40;1.10;;;21.50;52.50;;;;;;5026374;28;20021;-75
2021/10/30 01:07:10;;;;;;;1.58;1.20;;;21.50;52.50;;;;;;5028113;28;20493;-75
2021/10/30 01:09:36;;;;;;;1.30;1.00;;;21.50;53.00;;;;;;5039945;28;20043;-74
2021/10/30 01:12:02;;;;;;;1.80;1.10;;;21.50;52.50;;;;;;5026281;28;20069;-74
2021/10/30 01:14:30;;;;;;;1.65;1.17;;;21.50;52.50;;;;;;5028053;28;20096;-75
2021/10/30 01:16:58;;;;;;;1.75;1.00;;;21.40;52.50;;;;;;5039151;28;20045;-74
2021/10/30 01:19:25;;;;;;;1.98;1.20;;;21.50;52.60;;;;;;5029175;28;20057;-76
2021/10/30 01:21:51;;;;;;;1.52;1.10;;;21.40;52.50;;;;;;5039638;28;20029;-75
2021/10/30 01:24:16;;;;;;;1.63;1.10;;;21.40;52.50;;;;;;5027628;28;20048;-72
2021/10/30 01:26:42;;;;;;;1.40;1.00;;;21.40;52.50;;;;;;5031610;28;20040;-72
2021/10/30 01:29:08;;;;;;;1.83;1.27;;;21.40;52.50;;;;;;5029308;28;20083;-73
2021/10/30 01:31:34;;;;;;;1.90;1.20;;;21.40;52.60;;;;;;5030947;28;20045;-73
2021/10/30 01:34:06;;;;;;;1.05;0.90;;;21.40;52.60;;;;;;5030239;28;20125;-73
2021/10/30 01:36:34;;;;;;;1.10;1.00;;;21.40;52.60;;;;;;5048019;28;20067;-72
2021/10/30 01:39:00;;;;;;;1.48;1.08;;;21.40;52.60;;;;;;5036512;28;20037;-73
2021/10/30 01:41:27;;;;;;;1.27;1.00;;;21.40;53.10;;;;;;5026566;28;20039;-73
2021/10/30 01:43:55;;;;;;;3.13;1.00;;;21.40;52.60;;;;;;5029772;28;20045;-73
2021/10/30 01:46:22;;;;;;;1.40;1.00;;;21.30;52.60;;;;;;5038998;28;20032;-74
2021/10/30 01:48:48;;;;;;;1.23;1.05;;;21.30;52.60;;;;;;5034419;28;20030;-71
2021/10/30 01:51:14;;;;;;;1.40;1.00;;;21.30;53.10;;;;;;5029773;28;20207;-73
2021/10/30 01:53:40;;;;;;;2.25;1.30;;;21.30;52.60;;;;;;5025376;28;20038;-74
2021/10/30 01:56:07;;;;;;;1.70;1.20;;;21.30;52.60;;;;;;5025363;28;20045;-74
2021/10/30 01:58:32;;;;;;;1.33;1.00;;;21.30;52.60;;;;;;5023601;28;20029;-74
2021/10/30 02:01:00;;;;;;;1.58;1.10;;;21.30;52.70;;;;;;5029408;28;20511;-74
2021/10/30 02:03:29;;;;;;;1.42;0.90;;;21.30;52.70;;;;;;5033189;28;20020;-73
2021/10/30 02:05:55;;;;;;;1.48;1.05;;;21.30;52.70;;;;;;5035612;28;20025;-71
2021/10/30 02:08:21;;;;;;;2.38;1.08;;;21.30;52.70;;;;;;5042768;28;20112;-73
2021/10/30 02:10:47;;;;;;;1.70;1.10;;;21.30;52.70;;;;;;5036006;28;20133;-71
2021/10/30 02:13:13;;;;;;;1.60;1.00;;;21.20;52.70;;;;;;5024806;28;20433;-73
2021/10/30 02:15:39;;;;;;;1.35;1.08;;;21.20;52.60;;;;;;5025199;28;20045;-73
2021/10/30 02:18:05;;;;;;;1.58;1.10;;;21.30;52.70;;;;;;5041262;28;20033;-74
2021/10/30 02:20:31;;;;;;;1.23;0.90;;;21.20;52.70;;;;;;5029298;28;20021;-73
2021/10/30 02:22:57;;;;;;;1.40;1.00;;;21.20;52.70;;;;;;5028089;28;20400;-74
2021/10/30 02:25:23;;;;;;;1.35;1.00;;;21.20;52.70;;;;;;5032661;28;20468;-74
2021/10/30 02:27:48;;;;;;;1.60;1.10;;;21.20;52.70;;;;;;5030003;28;20029;-72
2021/10/30 02:30:15;;;;;;;1.27;0.90;;;21.20;52.70;;;;;;5029861;28;20021;-74
2021/10/30 02:32:44;;;;;;;1.45;1.00;;;21.20;52.70;;;;;;5028200;28;20029;-71
2021/10/30 02:35:10;;;;;;;1.33;1.10;;;21.20;52.70;;;;;;5038832;28;20496;-75
2021/10/30 02:37:36;;;;;;;1.23;0.88;;;21.20;52.70;;;;;;5033432;28;20032;-74
2021/10/30 02:40:03;;;;;;;1.52;1.05;;;21.20;52.70;;;;;;5026261;28;20384;-74
2021/10/30 02:42:28;;;;;;;1.02;0.80;;;21.20;52.70;;;;;;5033441;28;20029;-73
2021/10/30 02:44:54;;;;;;;1.50;1.10;;;21.20;52.70;;;;;;5029695;28;20425;-74
2021/10/30 02:47:19;;;;;;;1.30;1.02;;;21.10;52.70;;;;;;5038755;28;20380;-74
2021/10/30 02:49:45;;;;;;;1.33;0.93;;;21.10;52.70;;;;;;5038291;28;20078;-73
2021/10/30 02:52:11;;;;;;;1.27;1.02;;;21.10;52.70;;;;;;5031788;28;20409;-74
2021/10/30 02:54:36;;;;;;;1.58;0.90;;;21.10;52.70;;;;;;5041885;28;20021;-74
2021/10/30 02:57:02;;;;;;;1.50;1.10;;;21.10;52.70;;;;;;5030439;28;20496;-74
2021/10/30 02:59:28;;;;;;;1.13;0.90;;;21.10;52.70;;;;;;5038363;28;20264;-74
2021/10/30 03:01:53;;;;;;;1.20;0.90;;;21.10;52.70;;;;;;5039063;28;20751;-75
2021/10/30 03:04:19;;;;;;;1.20;0.98;;;21.10;52.80;;;;;;5036430;28;20018;-71
2021/10/30 03:06:48;;;;;;;1.52;1.00;;;21.10;52.80;;;;;;5029629;28;20091;-74
2021/10/30 03:09:14;;;;;;;1.38;1.00;;;21.10;52.80;;;;;;5044373;28;20021;-72
2021/10/30 03:11:40;;;;;;;1.45;0.90;;;21.10;52.80;;;;;;5034209;28;20039;-73
2021/10/30 03:14:05;;;;;;;1.50;1.00;;;21.10;52.80;;;;;;5039543;28;20550;-73
2021/10/30 03:16:32;;;;;;;1.65;1.00;;;21.10;52.80;;;;;;5033557;28;20366;-75
2021/10/30 03:18:57;;;;;;;1.35;1.10;;;21.00;52.70;;;;;;5041745;28;20033;-72
2021/10/30 03:21:23;;;;;;;1.42;1.00;;;21.10;52.80;;;;;;5030613;28;20036;-74
2021/10/30 03:23:49;;;;;;;1.17;0.90;;;21.00;52.80;;;;;;5036300;28;20022;-74
2021/10/30 03:26:15;;;;;;;1.10;0.90;;;21.00;52.80;;;;;;5033176;28;20105;-72
2021/10/30 03:28:41;;;;;;;1.17;0.85;;;21.00;52.80;;;;;;5048180;28;20107;-75
2021/10/30 03:31:07;;;;;;;1.00;0.90;;;21.00;52.80;;;;;;5046842;28;20049;-73
2021/10/30 03:33:32;;;;;;;1.00;0.85;;;21.00;52.80;;;;;;5039512;28;20098;-72
2021/10/30 03:35:58;;;;;;;1.17;1.00;;;21.00;52.80;;;;;;5026725;28;20024;-74
2021/10/30 03:38:24;;;;;;;1.50;1.05;;;21.00;52.80;;;;;;5028133;28;20460;-74
2021/10/30 03:40:50;;;;;;;1.42;1.00;;;21.00;52.90;;;;;;5030160;28;20515;-75
2021/10/30 03:43:16;;;;;;;1.33;0.90;;;21.00;52.80;;;;;;5038862;28;20052;-75
2021/10/30 03:45:42;;;;;;;0.95;0.80;;;21.00;53.40;;;;;;5049559;28;20064;-73
2021/10/30 03:48:08;;;;;;;1.42;1.10;;;21.00;52.90;;;;;;5028034;28;20037;-72
2021/10/30 03:50:37;;;;;;;1.55;0.90;;;21.00;52.90;;;;;;5036259;28;20059;-75
2021/10/30 03:53:03;;;;;;;;;;;21.00;52.90;;;;;;5050933;28;20488;-74
2021/10/30 03:55:30;;;;;;;1.02;0.90;;;21.00;52.90;;;;;;5031850;28;19920;-73
2021/10/30 03:57:56;;;;;;;1.13;1.00;;;20.90;52.80;;;;;;5032075;28;20124;-75
2021/10/30 04:00:21;;;;;;;1.15;1.00;;;21.00;52.90;;;;;;5038289;28;20108;-74
2021/10/30 04:02:47;;;;;;;1.35;1.00;;;20.90;52.90;;;;;;5038999;28;20458;-73
2021/10/30 04:05:13;;;;;;;0.93;0.82;;;20.90;53.40;;;;;;5030135;28;20030;-75
2021/10/30 04:07:39;;;;;;;1.67;0.98;;;20.90;52.90;;;;;;5026983;28;20116;-72
2021/10/30 04:10:05;;;;;;;1.20;1.00;;;20.90;52.90;;;;;;5038602;28;20033;-73
2021/10/30 04:12:36;;;;;;;1.23;1.00;;;20.90;53.00;;;;;;5037402;28;20036;-72
2021/10/30 04:15:03;;;;;;;1.70;1.10;;;20.90;53.00;;;;;;5026389;28;20104;-74
2021/10/30 04:17:29;;;;;;;1.40;1.00;;;20.90;53.00;;;;;;5028115;28;20121;-75
2021/10/30 04:19:54;;;;;;;1.42;1.00;;;20.90;53.00;;;;;;5028194;28;20116;-73
2021/10/30 04:22:20;;;;;;;1.10;1.00;;;20.90;53.00;;;;;;5027955;28;20025;-74
2021/10/30 04:24:45;;;;;;;0.80;0.80;;;20.90;53.00;;;;;;5031239;28;20374;-74
2021/10/30 04:27:11;;;;;;;1.17;0.90;;;20.90;53.00;;;;;;5026894;28;20354;-72
2021/10/30 04:29:37;;;;;;;1.33;0.88;;;20.90;53.10;;;;;;5053247;28;20124;-71
2021/10/30 04:32:04;;;;;;;1.45;1.00;;;20.90;53.10;;;;;;5027380;28;20041;-74
2021/10/30 04:34:45;;;;;;;0.98;0.88;;;20.90;53.10;;;;;;5033098;28;20436;-72
2021/10/30 04:37:17;;;;;;;0.98;0.80;;;20.90;53.10;;;;;;5020718;28;20100;-73
2021/10/30 04:39:45;;;;;;;1.00;0.90;;;20.90;53.10;;;;;;5017119;28;20393;-75
2021/10/30 04:42:12;;;;;;;1.55;1.00;;;20.90;53.10;;;;;;5027871;28;20580;-75
2021/10/30 04:44:37;;;;;;;1.13;0.80;;;20.90;53.10;;;;;;5025984;28;20021;-74
2021/10/30 04:47:03;;;;;;;0.95;0.85;;;20.80;53.10;;;;;;5029029;28;20051;-75
2021/10/30 04:49:29;;;;;;;1.10;0.93;;;20.80;53.10;;;;;;5032532;28;20025;-74
2021/10/30 04:51:55;;;;;;;1.50;1.00;;;20.80;53.10;;;;;;5028893;28;20421;-75
2021/10/30 04:54:21;;;;;;;1.10;0.90;;;20.80;53.10;;;;;;5035477;28;20126;-72
2021/10/30 04:56:46;;;;;;;1.08;0.90;;;20.80;53.10;;;;;;5026281;28;20033;-72
2021/10/30 04:59:12;;;;;;;0.95;0.85;;;20.80;53.10;;;;;;5028788;28;20529;-73
2021/10/30 05:01:37;;;;;;;1.30;1.00;;;20.80;53.10;;;;;;5024435;28;20030;-71
2021/10/30 05:04:03;;;;;;;1.40;0.93;;;20.80;53.10;;;;;;5022639;28;20091;-73
2021/10/30 05:06:29;;;;;;;1.05;0.80;;;20.80;53.10;;;;;;5026576;28;20061;-74
2021/10/30 05:08:55;;;;;;;0.80;0.80;;;20.80;53.10;;;;;;5036344;28;20033;-74
2021/10/30 05:11:20;;;;;;;1.33;1.00;;;20.80;53.60;;;;;;5023819;28;20116;-74
2021/10/30 05:13:49;;;;;;;1.33;1.00;;;20.80;53.10;;;;;;5027346;28;20034;-75
2021/10/30 05:16:14;;;;;;;1.10;0.90;;;20.80;53.20;;;;;;5028358;28;20076;-75
2021/10/30 05:18:40;;;;;;;1.35;1.00;;;20.80;53.20;;;;;;5028722;28;20037;-71
2021/10/30 05:21:05;;;;;;;1.13;0.90;;;20.80;53.10;;;;;;5028107;28;20447;-75
2021/10/30 05:23:37;;;;;;;1.45;1.10;;;20.80;53.20;;;;;;5041215;28;20458;-74
2021/10/30 05:26:03;;;;;;;1.42;0.90;;;20.80;53.20;;;;;;5022710;28;20103;-72
2021/10/30 05:28:28;;;;;;;1.27;1.00;;;20.80;53.20;;;;;;5051301;28;20029;-73
2021/10/30 05:30:54;;;;;;;1.25;0.90;;;20.80;53.20;;;;;;5030897;28;20128;-71
2021/10/30 05:33:20;;;;;;;1.38;1.00;;;20.80;53.30;;;;;;5030265;28;20030;-72
2021/10/30 05:35:46;;;;;;;1.45;1.05;;;20.80;53.20;;;;;;5029269;28;20065;-73
2021/10/30 05:38:13;;;;;;;1.65;1.10;;;20.80;53.30;;;;;;5030124;28;20041;-73
2021/10/30 05:40:39;;;;;;;1.50;0.98;;;20.70;53.20;;;;;;5028171;28;20018;-73
2021/10/30 05:43:11;;;;;;;1.83;1.20;;;20.70;53.20;;;;;;5038310;28;20041;-75
2021/10/30 05:45:38;;;;;;;1.08;0.80;;;20.70;53.20;;;;;;5041098;28;20021;-72
2021/10/30 05:48:06;;;;;;;1.00;0.90;;;20.70;53.20;;;;;;5028277;28;20040;-75
2021/10/30 05:50:32;;;;;;;1.33;0.98;;;20.70;53.20;;;;;;5025177;28;20435;-74
2021/10/30 05:52:58;;;;;;;1.08;0.90;;;20.70;53.20;;;;;;5023932;28;20055;-73
2021/10/30 05:55:24;;;;;;;2.15;0.90;;;20.70;53.30;;;;;;5040397;28;20029;-75
2021/10/30 05:57:50;;;;;;;1.52;1.00;;;20.70;53.20;;;;;;5029276;28;20033;-74
2021/10/30 06:00:15;;;;;;;1.20;0.90;;;20.70;53.30;;;;;;5041119;28;20060;-72
2021/10/30 06:02:41;;;;;;;1.17;0.95;;;20.70;53.30;;;;;;5036567;28;20465;-75
2021/10/30 06:05:07;;;;;;;1.63;1.00;;;20.70;53.30;;;;;;5036383;28;20033;-72
2021/10/30 06:07:33;;;;;;;1.40;1.00;;;20.70;53.30;;;;;;5030597;28;20036;-71
2021/10/30 06:09:59;;;;;;;1.42;1.00;;;20.70;53.30;;;;;;5031253;28;20040;-72
2021/10/30 06:12:25;;;;;;;1.80;1.10;;;20.70;53.30;;;;;;5033816;28;20104;-71
2021/10/30 06:14:51;;;;;;;1.48;1.00;;;20.70;53.30;;;;;;5030914;28;20100;-75
2021/10/30 06:17:17;;;;;;;1.58;1.05;;;20.70;53.30;;;;;;5028249;28;20040;-75
2021/10/30 06:19:42;;;;;;;1.25;0.90;;;20.70;53.30;;;;;;5030919;28;20017;-75
2021/10/30 06:22:08;;;;;;;1.20;0.90;;;20.70;53.30;;;;;;5026757;28;20473;-74
2021/10/30 06:24:34;;;;;;;1.23;1.00;;;20.70;53.30;;;;;;5031439;28;20029;-72
2021/10/30 06:27:00;;;;;;;1.38;0.93;;;20.70;53.30;;;;;;5026378;28;20048;-74
2021/10/30 06:29:28;;;;;;;1.55;1.00;;;20.70;53.40;;;;;;5030918;28;20668;-73
2021/10/30 06:31:54;;;;;;;1.25;0.93;;;20.70;53.30;;;;;;5036624;28;20060;-74
2021/10/30 06:34:20;;;;;;;1.40;0.93;;;20.70;53.30;;;;;;5033745;28;20029;-73
2021/10/30 06:36:45;;;;;;;1.38;0.93;;;20.70;53.30;;;;;;5028268;28;20091;-73
2021/10/30 06:39:11;;;;;;;1.45;1.00;;;20.60;53.30;;;;;;5039813;28;20075;-73
2021/10/30 06:41:37;;;;;;;1.42;0.90;;;20.60;53.30;;;;;;5023824;28;20029;-71
2021/10/30 06:44:03;;;;;;;1.48;0.90;;;20.60;53.30;;;;;;5028989;28;20021;-73
2021/10/30 06:46:29;;;;;;;1.13;0.90;;;20.60;53.30;;;;;;5027461;28;20017;-73
2021/10/30 06:48:56;;;;;;;1.20;0.95;;;20.60;53.40;;;;;;5033058;28;20155;-72
2021/10/30 06:51:23;;;;;;;1.45;0.90;;;20.60;53.30;;;;;;5041133;28;20533;-73
2021/10/30 06:53:49;;;;;;;1.92;0.98;;;20.60;53.30;;;;;;5036034;28;20025;-74
2021/10/30 06:56:15;;;;;;;1.00;0.90;;;20.60;53.40;;;;;;5030248;28;20025;-73
2021/10/30 06:58:41;;;;;;;1.40;1.00;;;20.60;53.40;;;;;;5028037;28;20030;-75
2021/10/30 07:01:07;;;;;;;1.02;0.80;;;20.60;53.40;;;;;;5028597;28;20401;-74
2021/10/30 07:03:33;;;;;;;1.00;0.80;;;20.60;54.00;;;;;;5034872;28;20520;-72
2021/10/30 07:05:59;;;;;;;1.08;0.90;;;20.60;53.40;;;;;;5029272;28;20481;-74
2021/10/30 07:08:25;;;;;;;1.83;0.88;;;20.60;53.40;;;;;;5033850;28;20094;-74
2021/10/30 07:10:51;;;;;;;1.88;0.93;;;20.60;53.40;;;;;;5039469;28;20025;-73
2021/10/30 07:13:16;;;;;;;1.05;0.80;;;20.60;53.50;;;;;;5028215;28;20440;-76
2021/10/30 07:15:42;;;;;;;1.42;0.93;;;20.60;53.50;;;;;;5028623;28;20021;-75
2021/10/30 07:18:08;;;;;;;1.00;0.90;;;20.60;53.50;;;;;;5030300;28;20104;-75
2021/10/30 07:20:33;;;;;;;1.38;0.77;;;20.60;53.50;;;;;;5037547;28;20025;-74
2021/10/30 07:22:59;;;;;;;1.58;0.90;;;20.60;53.50;;;;;;5028637;28;20033;-72
2021/10/30 07:25:25;;;;;;;0.82;0.80;;;20.60;53.50;;;;;;5032599;28;20138;-73
2021/10/30 07:27:52;;;;;;;1.27;0.90;;;20.60;53.50;;;;;;5015749;28;20033;-74
2021/10/30 07:30:19;;;;;;;1.00;0.90;;;20.60;53.50;;;;;;5024776;28;20578;-71
2021/10/30 07:32:50;;;;;;;1.55;0.80;;;20.60;53.50;;;;;;5023326;28;20017;-71
2021/10/30 07:35:15;;;;;;;1.25;0.90;;;20.60;53.50;;;;;;5029993;28;20030;-73
2021/10/30 07:37:41;;;;;;;1.23;0.88;;;20.50;53.50;;;;;;5031019;28;20036;-75
2021/10/30 07:40:10;;;;;;;1.00;0.80;;;20.60;53.50;;;;;;5026100;28;20560;-72
2021/10/30 07:42:36;;;;;;;1.67;0.90;;;20.60;53.60;;;;;;5028996;28;20022;-73
2021/10/30 07:45:03;;;;;;;1.13;0.90;;;20.50;53.50;;;;;;5038113;28;20532;-73
2021/10/30 07:47:28;;;;;;;1.38;0.80;;;20.50;53.50;;;;;;5030905;28;20382;-73
2021/10/30 07:49:54;;;;;;;1.27;0.88;;;20.50;53.60;;;;;;5035166;28;20080;-74
2021/10/30 07:52:21;;;;;;;1.02;0.90;;;20.50;53.60;;;;;;5027862;28;20061;-73
2021/10/30 07:54:47;;;;;;;1.23;0.82;;;20.50;53.60;;;;;;5029187;28;20489;-72
2021/10/30 07:57:13;;;;;;;0.73;0.73;;;20.50;54.10;;;;;;5029793;28;20037;-71
2021/10/30 07:59:39;;;;;;;1.10;0.90;;;20.50;53.60;;;;;;5029222;28;20018;-73
2021/10/30 08:02:07;;;;;;;0.90;0.77;;;20.50;53.70;;;;;;5020410;28;20120;-72
2021/10/30 08:04:36;;;;;;;2.05;0.70;;;20.50;53.60;;;;;;5031793;28;20025;-73
2021/10/30 08:07:02;;;;;;;;;;;20.50;53.60;;;;;;5030161;28;20056;-72
2021/10/30 08:09:28;;;;;;;0.88;0.80;;;20.50;53.70;;;;;;5028490;28;19913;-73
2021/10/30 08:11:53;;;;;;;1.77;0.80;;;20.50;53.70;;;;;;5034234;28;20495;-73
2021/10/30 08:14:19;;;;;;;1.55;0.77;;;20.50;53.60;;;;;;5026976;28;20057;-75
2021/10/30 08:16:45;;;;;;;0.90;0.75;;;20.50;53.70;;;;;;5034252;28;20060;-74
2021/10/30 08:19:10;;;;;;;0.77;0.70;;;20.50;53.60;;;;;;5027170;28;20067;-75
2021/10/30 08:21:36;;;;;;;1.38;0.70;;;20.50;53.70;;;;;;5025876;28;20033;-72
2021/10/30 08:24:03;;;;;;;1.00;0.70;;;20.50;53.70;;;;;;5028761;28;20033;-75
2021/10/30 08:26:29;;;;;;;0.95;0.85;;;20.50;53.70;;;;;;5012949;28;20036;-72
2021/10/30 08:28:56;;;;;;;1.08;0.80;;;20.40;53.70;;;;;;5026183;28;20064;-74
2021/10/30 08:31:22;;;;;;;1.10;0.77;;;20.50;53.80;;;;;;5026031;28;20034;-74
2021/10/30 08:33:48;;;;;;;2.70;0.80;;;20.50;53.70;;;;;;5031333;28;20510;-76
2021/10/30 08:36:14;;;;;;;1.20;0.80;;;20.50;53.70;;;;;;5038084;28;20137;-76
2021/10/30 08:38:39;;;;;;;1.13;0.73;;;20.50;53.80;;;;;;5030782;28;20095;-73
2021/10/30 08:41:05;;;;;;;1.08;0.80;;;20.40;53.70;;;;;;5028064;28;20399;-74
2021/10/30 08:43:31;;;;;;;1.90;0.80;;;20.50;53.80;;;;;;5021998;28;20021;-74
2021/10/30 08:45:59;;;;;;;0.93;0.65;;;20.50;53.80;;;;;;5033738;28;20125;-75
2021/10/30 08:48:33;;;;;;;1.65;0.80;;;20.50;53.80;;;;;;5024591;28;20029;-72
2021/10/30 08:51:02;;;;;;;1.52;0.90;;;20.40;53.80;;;;;;5024843;28;20025;-74
2021/10/30 08:53:29;;;;;;;1.52;0.82;;;20.40;53.80;;;;;;5022123;28;20132;-75
2021/10/30 08:55:58;;;;;;;1.35;0.80;;;20.50;53.80;;;;;;5022141;28;20045;-74
2021/10/30 08:58:27;;;;;;;1.08;0.80;;;20.50;53.90;;;;;;5023607;28;20028;-74
2021/10/30 09:00:55;;;;;;;1.33;0.80;;;20.40;53.80;;;;;;5025199;28;20392;-72
2021/10/30 09:03:22;;;;;;;1.13;0.73;;;20.50;53.90;;;;;;5026250;28;20373;-74
2021/10/30 09:05:53;;;;;;;3.25;0.90;;;20.50;53.90;;;;;;5027035;28;20030;-73
2021/10/30 09:08:25;;;;;;;1.20;0.88;;;20.50;54.40;;;;;;5018517;28;20115;-74
2021/10/30 09:11:14;;;;;;;1.83;0.90;;;20.50;54.00;;;;;;5017585;28;20039;-73
2021/10/30 09:13:40;;;;;;;1.90;0.80;;;20.40;53.90;;;;;;5024164;28;20043;-74
2021/10/30 09:16:06;;;;;;;1.27;0.82;;;20.50;54.00;;;;;;5020650;28;20029;-76
2021/10/30 09:18:36;;;;;;;1.27;0.85;;;20.40;54.00;;;;;;5026102;28;20374;-74
2021/10/30 09:21:07;;;;;;;1.20;0.82;;;20.50;54.10;;;;;;5019168;28;20432;-75
2021/10/30 09:23:35;;;;;;;1.58;0.90;;;20.50;54.10;;;;;;5023866;28;20022;-74
2021/10/30 09:26:04;;;;;;;2.42;1.08;;;20.40;54.10;;;;;;5027082;28;20055;-73
2021/10/30 09:28:57;;;;;;;1.45;0.82;;;20.40;54.10;;;;;;5020050;28;20076;-74
2021/10/30 09:31:29;;;;;;;2.13;0.85;;;20.50;54.20;;;;;;5011665;28;20534;-75
2021/10/30 09:34:03;;;;;;;2.28;1.00;;;20.40;54.10;;;;;;5039096;28;20037;-74
2021/10/30 09:36:30;;;;;;;1.52;0.80;;;20.40;54.20;;;;;;5019709;28;20100;-72
2021/10/30 09:39:05;;;;;;;2.38;0.80;;;20.40;54.20;;;;;;5030054;28;20390;-75
2021/10/30 09:41:35;;;;;;;1.52;0.93;;;20.40;54.20;;;;;;5023341;28;20408;-74
2021/10/30 09:44:06;;;;;;;1.30;0.85;;;20.40;54.20;;;;;;5027225;28;20481;-75
2021/10/30 09:46:55;;;;;;;1.33;0.90;;;20.40;54.20;;;;;;5024797;28;20022;-74
2021/10/30 09:49:27;;;;;;;1.30;0.85;;;20.40;54.30;;;;;;5021333;28;20025;-73
2021/10/30 09:52:14;;;;;;;1.88;0.90;;;20.40;54.30;;;;;;5028476;28;20112;-75
2021/10/30 09:54:46;;;;;;;1.77;0.90;;;20.40;54.30;;;;;;5022140;28;20025;-74
2021/10/30 09:57:30;;;;;;;2.25;0.90;;;20.40;54.30;;;;;;5030280;28;20356;-73
2021/10/30 09:59:58;;;;;;;1.48;0.90;;;20.40;54.30;;;;;;5027423;28;20048;-72
2021/10/30 10:02:25;;;;;;;1.52;0.88;;;20.40;54.30;;;;;;5025108;28;20025;-75
2021/10/30 10:04:52;;;;;;;2.45;1.20;;;20.40;54.30;;;;;;5024979;28;20030;-74
2021/10/30 10:07:25;;;;;;;2.13;0.90;;;20.40;54.30;;;;;;5026676;28;20051;-74
2021/10/30 10:09:51;;;;;;;1.27;0.80;;;20.40;54.40;;;;;;5030683;28;20029;-74
2021/10/30 10:12:17;;;;;;;1.52;0.95;;;20.40;54.40;;;;;;5028826;28;20041;-72
2021/10/30 10:14:45;;;;;;;1.40;0.95;;;20.40;54.40;;;;;;5030385;28;20045;-71
2021/10/30 10:17:12;;;;;;;1.67;1.00;;;20.40;54.50;;;;;;5022675;28;20423;-74
2021/10/30 10:19:38;;;;;;;2.88;1.02;;;20.40;54.50;;;;;;5020928;28;20025;-74
2021/10/30 10:22:05;;;;;;;2.20;1.10;;;20.40;54.40;;;;;;5029349;28;20025;-75
2021/10/30 10:24:32;;;;;;;3.13;1.00;;;20.40;54.50;;;;;;5034393;28;20036;-75
2021/10/30 10:27:00;;;;;;;3.10;1.00;;;20.40;54.50;;;;;;5034193;28;20519;-74
2021/10/30 10:29:33;;;;;;;2.40;0.98;;;20.40;55.00;;;;;;5028972;28;20040;-75
2021/10/30 10:32:02;;;;;;;2.65;0.90;;;20.40;54.60;;;;;;5029655;28;20029;-76
2021/10/30 10:34:35;;;;;;;1.48;0.95;;;20.40;54.70;;;;;;5038582;28;20032;-74
2021/10/30 10:37:14;;;;;;;1.55;1.00;;;20.40;54.70;;;;;;5023112;28;20401;-74
2021/10/30 10:39:48;;;;;;;1.73;1.00;;;20.40;54.70;;;;;;5019348;28;20025;-72
2021/10/30 10:42:15;;;;;;;1.92;1.05;;;20.40;54.70;;;;;;5021818;28;20035;-76
2021/10/30 10:44:41;;;;;;;2.03;1.00;;;20.40;54.80;;;;;;5019356;28;20025;-72
2021/10/30 10:47:30;;;;;;;1.70;1.05;;;20.40;54.90;;;;;;5026311;28;20388;-73
2021/10/30 10:50:11;;;;;;;1.88;1.00;;;20.40;55.40;;;;;;5039351;28;20575;-72
2021/10/30 10:52:59;;;;;;;1.67;1.10;;;20.40;55.00;;;;;;5025871;28;20040;-75
2021/10/30 10:55:25;;;;;;;1.92;1.00;;;20.40;55.10;;;;;;5043809;28;20029;-75
2021/10/30 10:57:51;;;;;;;2.25;1.02;;;20.40;55.50;;;;;;5029570;28;20025;-75
2021/10/30 11:00:21;;;;;;;1.65;0.95;;;20.40;55.80;;;;;;5031723;28;20037;-75
2021/10/30 11:02:46;;;;;;;2.75;1.05;;;20.40;55.80;;;;;;5026977;28;20531;-73
2021/10/30 11:05:18;;;;;;;2.35;1.10;;;20.40;55.90;;;;;;5033334;28;20029;-77
2021/10/30 11:07:58;;;;;;;3.38;1.13;;;20.40;56.00;;;;;;5028334;28;20490;-72
2021/10/30 11:10:44;;;;;;;2.92;1.20;;;20.40;56.10;;;;;;5027301;28;20029;-74
2021/10/30 11:13:19;;;;;;;3.50;1.10;;;20.40;56.30;;;;;;5027479;28;20166;-76
2021/10/30 11:15:48;;;;;;;2.33;1.00;;;20.40;56.30;;;;;;5024621;28;20128;-76
2021/10/30 11:21:16;;;;;;;2.67;1.10;;;20.40;56.40;;;;;;5027600;28;20033;-76
2021/10/30 11:23:47;;;;;;;2.50;1.15;;;20.40;56.50;;;;;;5024100;28;20108;-75
2021/10/30 11:26:30;;;;;;;2.88;1.20;;;20.50;56.60;;;;;;5021833;28;20029;-75
2021/10/30 11:29:13;;;;;;;2.60;1.15;;;20.50;56.80;;;;;;5025095;28;20040;-76
2021/10/30 11:31:40;;;;;;;2.13;1.00;;;20.50;56.70;;;;;;5029451;28;20039;-75
2021/10/30 11:34:11;;;;;;;2.05;0.98;;;20.50;56.70;;;;;;5033357;28;20072;-75
2021/10/30 11:36:41;;;;;;;2.38;1.25;;;20.50;56.80;;;;;;5035781;28;20507;-76
2021/10/30 11:39:16;;;;;;;1.73;1.05;;;20.50;56.70;;;;;;5031729;28;20030;-76
2021/10/30 11:41:44;;;;;;;1.85;1.10;;;20.50;56.80;;;;;;5026932;28;20048;-71
2021/10/30 11:44:15;;;;;;;2.72;1.15;;;20.50;56.80;;;;;;5030249;28;20022;-73
2021/10/30 11:47:07;;;;;;;2.08;1.10;;;20.50;56.70;;;;;;5027878;28;20086;-75
2021/10/30 11:49:34;;;;;;;3.22;1.30;;;20.40;56.70;;;;;;5027586;28;20053;-75
2021/10/30 11:52:10;;;;;;;3.00;1.50;;;20.40;56.50;;;;;;5048151;28;20044;-74
2021/10/30 11:54:37;;;;;;;2.13;1.30;;;20.50;56.60;;;;;;5034295;28;20082;-74
2021/10/30 11:57:12;;;;;;;2.58;1.25;;;20.50;56.50;;;;;;5022549;28;20041;-71
2021/10/30 11:59:45;;;;;;;2.50;1.20;;;20.50;56.40;;;;;;5032232;28;20082;-74
2021/10/30 12:02:16;;;;;;;3.00;1.40;;;20.40;56.40;;;;;;5022968;28;20041;-76
2021/10/30 12:04:43;;;;;;;2.53;1.30;;;20.40;56.40;;;;;;5022253;28;20030;-73
2021/10/30 12:07:10;;;;;;;4.07;1.38;;;20.50;56.40;;;;;;5029155;28;20378;-74
2021/10/30 12:09:38;;;;;;;3.58;1.52;;;20.50;56.40;;;;;;5023039;28;20025;-74
2021/10/30 12:12:05;;;;;;;2.63;1.20;;;20.40;56.30;;;;;;5025353;28;20489;-75
2021/10/30 12:14:43;;;;;;;4.80;1.33;;;20.40;56.40;;;;;;5021488;28;20037;-74
2021/10/30 12:17:19;;;;;;;3.70;1.35;;;20.50;56.50;;;;;;5031551;28;20033;-74
2021/10/30 12:19:56;;;;;;;3.38;1.30;;;20.50;56.40;;;;;;5038860;28;20453;-73
2021/10/30 12:22:37;;;;;;;2.88;1.27;;;20.50;56.40;;;;;;5057696;28;21307;-65
2021/10/30 12:25:12;;;;;;;3.08;1.40;;;20.50;56.40;;;;;;5055439;28;20112;-65
2021/10/30 12:27:48;;;;;;;2.95;1.20;;;20.40;56.40;;;;;;5042536;28;20114;-63
2021/10/30 12:30:15;;;;;;;4.10;1.45;;;20.50;56.40;;;;;;5047806;28;20033;-64
2021/10/30 12:32:46;;;;;;;4.43;1.50;;;20.40;56.40;;;;;;5063324;28;20039;-65
2021/10/30 12:35:32;;;;;;;4.10;1.50;;;20.40;56.40;;;;;;5067507;28;20021;-62
2021/10/30 12:38:13;;;;;;;3.30;1.30;;;20.50;56.50;;;;;;5083127;28;20033;-63
2021/10/30 12:40:39;;;;;;;3.72;1.80;;;20.50;56.50;;;;;;5049615;28;20082;-66
2021/10/30 12:43:07;;;;;;;5.90;1.70;;;20.50;56.50;;;;;;5046539;28;20029;-67
2021/10/30 12:45:55;;;;;;;3.75;1.67;;;20.40;56.40;;;;;;5045837;28;20096;-63
2021/10/30 12:48:34;;;;;;;4.15;1.70;;;20.40;56.40;;;;;;5050990;28;20115;-62
2021/10/30 12:51:02;;;;;;;4.38;1.70;;;20.50;56.40;;;;;;5067687;28;20028;-67
2021/10/30 12:53:30;;;;;;;5.20;1.65;;;20.50;56.40;;;;;;5062203;28;20032;-63
2021/10/30 12:56:09;;;;;;;4.93;1.90;;;20.40;56.40;;;;;;5067365;28;20065;-63